Terminal Aerodrome Forecast
Issued by NWS Cleveland, OH

Home | Current Version | Previous Version | Graphics & Text | Print | Product List | Glossary On
Versions: 1 2 3 4 5 6 7 8 9 10 11 12 13 14 15 16 17 18 19
597
FTUS41 KCLE 210335 AAA
TAFMFD
TAF AMD
KMFD 210335Z 2104/2124 12012KT P6SM BKN200
     FM210700 16010KT 6SM -SHRA VCTS BKN045CB
      TEMPO 2107/2109 3SM -TSRA BKN025CB
     FM211500 18015G22KT 6SM BR VCSH OVC025
     FM212000 18015G22KT P6SM VCTS BKN035CB=

USA.gov is the U.S. government's official web portal to all federal, state and local government web resources and services.